Cedar Falls, Iowa
Current Conditions -  °F | °C
As of 11:54 AM on Thursday 30 Oct 2014 (Local Time) from KALO Reporting Station
Broken Clouds Broken Clouds  
Wind Chill: 52°   Ceiling: 7000
Heat Index: 52°   Visibility: 10mi
Dew Point: 38°   Wind: 8mph
Humidity: 59%   Direction: 180°S
Pressure: 30.06"   Gusts: NA
Location:  42.53°N, 92.44°W
Report Text: KALO 301654Z 18007KT 10SM BKN070 BKN100 11/03 A3006 RMK AO2 SLP186 T01110033
Loading
Personal Weather Stations






























Interactive Weather Map New forecast layout! Learn more

10-Day Weather Forecast

Advertisements
Track Severe Weather on mobile